sensor_id;sensor_type;location;lat;lon;timestamp;temperature;humidity
7331;DHT22;3706;49.198;7.064;2023-05-18T00:01:58;4.30;99.90
7331;DHT22;3706;49.198;7.064;2023-05-18T00:04:26;4.30;99.90
7331;DHT22;3706;49.198;7.064;2023-05-18T00:06:54;4.30;99.90
7331;DHT22;3706;49.198;7.064;2023-05-18T00:09:23;4.20;99.90
7331;DHT22;3706;49.198;7.064;2023-05-18T00:11:52;4.20;99.90
7331;DHT22;3706;49.198;7.064;2023-05-18T00:14:19;4.10;99.90
7331;DHT22;3706;49.198;7.064;2023-05-18T00:16:46;4.10;99.90
7331;DHT22;3706;49.198;7.064;2023-05-18T00:19:13;4.00;99.90
7331;DHT22;3706;49.198;7.064;2023-05-18T00:21:40;4.00;99.90
7331;DHT22;3706;49.198;7.064;2023-05-18T00:24:08;4.00;99.90
7331;DHT22;3706;49.198;7.064;2023-05-18T00:26:37;3.90;99.90
7331;DHT22;3706;49.198;7.064;2023-05-18T00:29:05;3.90;99.90
7331;DHT22;3706;49.198;7.064;2023-05-18T00:31:33;4.00;99.90
7331;DHT22;3706;49.198;7.064;2023-05-18T00:34:01;4.00;99.90
7331;DHT22;3706;49.198;7.064;2023-05-18T00:36:29;3.90;99.90
7331;DHT22;3706;49.198;7.064;2023-05-18T00:38:56;3.90;99.90
7331;DHT22;3706;49.198;7.064;2023-05-18T00:41:24;3.80;99.90
7331;DHT22;3706;49.198;7.064;2023-05-18T00:43:51;3.80;99.90
7331;DHT22;3706;49.198;7.064;2023-05-18T00:46:20;4.00;99.90
7331;DHT22;3706;49.198;7.064;2023-05-18T00:48:47;3.90;99.90
7331;DHT22;3706;49.198;7.064;2023-05-18T00:51:15;3.90;99.90
7331;DHT22;3706;49.198;7.064;2023-05-18T00:53:43;3.90;99.90
7331;DHT22;3706;49.198;7.064;2023-05-18T00:56:10;3.90;99.90
7331;DHT22;3706;49.198;7.064;2023-05-18T00:58:38;3.60;99.90
7331;DHT22;3706;49.198;7.064;2023-05-18T01:01:05;3.60;99.90
7331;DHT22;3706;49.198;7.064;2023-05-18T01:03:35;3.60;99.90
7331;DHT22;3706;49.198;7.064;2023-05-18T01:06:03;3.40;99.90
7331;DHT22;3706;49.198;7.064;2023-05-18T01:08:31;3.40;99.90
7331;DHT22;3706;49.198;7.064;2023-05-18T01:11:08;3.40;99.90
7331;DHT22;3706;49.198;7.064;2023-05-18T01:13:42;3.60;99.90
7331;DHT22;3706;49.198;7.064;2023-05-18T01:16:19;3.50;99.90
7331;DHT22;3706;49.198;7.064;2023-05-18T01:18:58;3.60;99.90
7331;DHT22;3706;49.198;7.064;2023-05-18T01:21:37;3.60;99.90
7331;DHT22;3706;49.198;7.064;2023-05-18T01:24:23;3.40;99.90
7331;DHT22;3706;49.198;7.064;2023-05-18T01:26:56;3.40;99.90
7331;DHT22;3706;49.198;7.064;2023-05-18T01:29:25;3.40;99.90
7331;DHT22;3706;49.198;7.064;2023-05-18T01:31:54;3.30;99.90
7331;DHT22;3706;49.198;7.064;2023-05-18T01:34:22;3.30;99.90
7331;DHT22;3706;49.198;7.064;2023-05-18T01:36:49;3.30;99.90
7331;DHT22;3706;49.198;7.064;2023-05-18T01:39:16;3.30;99.90
7331;DHT22;3706;49.198;7.064;2023-05-18T01:41:50;3.20;99.90
7331;DHT22;3706;49.198;7.064;2023-05-18T01:44:22;3.30;99.90
7331;DHT22;3706;49.198;7.064;2023-05-18T01:46:54;3.30;99.90
7331;DHT22;3706;49.198;7.064;2023-05-18T01:49:28;3.30;99.90
7331;DHT22;3706;49.198;7.064;2023-05-18T01:51:57;3.20;99.90
7331;DHT22;3706;49.198;7.064;2023-05-18T01:54:29;3.20;99.90
7331;DHT22;3706;49.198;7.064;2023-05-18T01:56:58;3.10;99.90
7331;DHT22;3706;49.198;7.064;2023-05-18T01:59:27;3.10;99.90
7331;DHT22;3706;49.198;7.064;2023-05-18T02:01:57;3.10;99.90
7331;DHT22;3706;49.198;7.064;2023-05-18T02:04:24;3.20;99.90
7331;DHT22;3706;49.198;7.064;2023-05-18T02:06:51;3.00;99.90
7331;DHT22;3706;49.198;7.064;2023-05-18T02:09:19;3.00;99.90
7331;DHT22;3706;49.198;7.064;2023-05-18T02:11:46;2.90;99.90
7331;DHT22;3706;49.198;7.064;2023-05-18T02:14:13;2.90;99.90
7331;DHT22;3706;49.198;7.064;2023-05-18T02:16:42;3.00;99.90
7331;DHT22;3706;49.198;7.064;2023-05-18T02:19:12;3.10;99.90
7331;DHT22;3706;49.198;7.064;2023-05-18T02:21:39;3.10;99.90
7331;DHT22;3706;49.198;7.064;2023-05-18T02:24:08;3.00;99.90
7331;DHT22;3706;49.198;7.064;2023-05-18T02:26:35;3.00;99.90
7331;DHT22;3706;49.198;7.064;2023-05-18T02:29:03;3.00;99.90
7331;DHT22;3706;49.198;7.064;2023-05-18T02:31:31;3.10;99.90
7331;DHT22;3706;49.198;7.064;2023-05-18T02:33:59;3.00;99.90
7331;DHT22;3706;49.198;7.064;2023-05-18T02:36:26;3.00;99.90
7331;DHT22;3706;49.198;7.064;2023-05-18T02:39:02;3.00;99.90
7331;DHT22;3706;49.198;7.064;2023-05-18T02:41:29;2.80;99.90
7331;DHT22;3706;49.198;7.064;2023-05-18T02:43:56;3.00;99.90
7331;DHT22;3706;49.198;7.064;2023-05-18T02:46:23;2.90;99.90
7331;DHT22;3706;49.198;7.064;2023-05-18T02:48:51;2.80;99.90
7331;DHT22;3706;49.198;7.064;2023-05-18T02:51:21;2.80;99.90
7331;DHT22;3706;49.198;7.064;2023-05-18T02:53:48;2.70;99.90
7331;DHT22;3706;49.198;7.064;2023-05-18T02:56:15;2.80;99.90
7331;DHT22;3706;49.198;7.064;2023-05-18T02:58:43;2.80;99.90
7331;DHT22;3706;49.198;7.064;2023-05-18T03:01:10;2.80;99.90
7331;DHT22;3706;49.198;7.064;2023-05-18T03:03:38;2.80;99.90
7331;DHT22;3706;49.198;7.064;2023-05-18T03:06:06;2.80;99.90
7331;DHT22;3706;49.198;7.064;2023-05-18T03:08:35;2.80;99.90
7331;DHT22;3706;49.198;7.064;2023-05-18T03:11:03;2.80;99.90
7331;DHT22;3706;49.198;7.064;2023-05-18T03:13:30;2.70;99.90
7331;DHT22;3706;49.198;7.064;2023-05-18T03:15:57;2.60;99.90
7331;DHT22;3706;49.198;7.064;2023-05-18T03:18:24;2.60;99.90
7331;DHT22;3706;49.198;7.064;2023-05-18T03:20:50;2.60;99.90
7331;DHT22;3706;49.198;7.064;2023-05-18T03:23:18;2.70;99.90
7331;DHT22;3706;49.198;7.064;2023-05-18T03:25:46;2.60;99.90
7331;DHT22;3706;49.198;7.064;2023-05-18T03:28:18;2.60;99.90
7331;DHT22;3706;49.198;7.064;2023-05-18T03:30:45;2.60;99.90
7331;DHT22;3706;49.198;7.064;2023-05-18T03:33:12;2.50;99.90
7331;DHT22;3706;49.198;7.064;2023-05-18T03:35:39;2.50;99.90
7331;DHT22;3706;49.198;7.064;2023-05-18T03:38:06;2.50;99.90
7331;DHT22;3706;49.198;7.064;2023-05-18T03:40:33;2.40;99.90
7331;DHT22;3706;49.198;7.064;2023-05-18T03:43:02;2.40;99.90
7331;DHT22;3706;49.198;7.064;2023-05-18T03:45:29;2.40;99.90
7331;DHT22;3706;49.198;7.064;2023-05-18T03:47:56;2.40;99.90
7331;DHT22;3706;49.198;7.064;2023-05-18T03:50:23;2.50;99.90
7331;DHT22;3706;49.198;7.064;2023-05-18T03:52:51;2.50;99.90
7331;DHT22;3706;49.198;7.064;2023-05-18T03:55:18;2.60;99.90
7331;DHT22;3706;49.198;7.064;2023-05-18T03:57:46;2.50;99.90
7331;DHT22;3706;49.198;7.064;2023-05-18T04:00:14;2.50;99.90
7331;DHT22;3706;49.198;7.064;2023-05-18T04:02:41;2.50;99.90
7331;DHT22;3706;49.198;7.064;2023-05-18T04:05:08;2.50;99.90
7331;DHT22;3706;49.198;7.064;2023-05-18T04:07:37;2.50;99.90
7331;DHT22;3706;49.198;7.064;2023-05-18T04:10:08;2.60;99.90
7331;DHT22;3706;49.198;7.064;2023-05-18T04:12:36;2.60;99.90
7331;DHT22;3706;49.198;7.064;2023-05-18T04:15:03;2.60;99.90
7331;DHT22;3706;49.198;7.064;2023-05-18T04:17:32;2.70;99.90
7331;DHT22;3706;49.198;7.064;2023-05-18T04:20:00;2.70;99.90
7331;DHT22;3706;49.198;7.064;2023-05-18T04:22:39;2.90;99.90
7331;DHT22;3706;49.198;7.064;2023-05-18T04:25:08;2.80;99.90
7331;DHT22;3706;49.198;7.064;2023-05-18T04:27:36;3.00;99.90
7331;DHT22;3706;49.198;7.064;2023-05-18T04:30:04;3.10;99.90
7331;DHT22;3706;49.198;7.064;2023-05-18T04:32:34;3.20;99.90
7331;DHT22;3706;49.198;7.064;2023-05-18T04:35:02;3.20;99.90
7331;DHT22;3706;49.198;7.064;2023-05-18T04:37:30;3.30;99.90
7331;DHT22;3706;49.198;7.064;2023-05-18T04:39:57;3.30;99.90
7331;DHT22;3706;49.198;7.064;2023-05-18T04:42:26;3.30;99.90
7331;DHT22;3706;49.198;7.064;2023-05-18T04:44:54;3.40;99.90
7331;DHT22;3706;49.198;7.064;2023-05-18T04:47:20;3.50;99.90
7331;DHT22;3706;49.198;7.064;2023-05-18T04:49:50;3.60;99.90
7331;DHT22;3706;49.198;7.064;2023-05-18T04:52:18;3.90;99.90
7331;DHT22;3706;49.198;7.064;2023-05-18T04:54:45;3.90;99.90
7331;DHT22;3706;49.198;7.064;2023-05-18T04:57:12;4.10;99.90
7331;DHT22;3706;49.198;7.064;2023-05-18T04:59:40;4.50;99.90
7331;DHT22;3706;49.198;7.064;2023-05-18T05:02:07;5.00;99.90
7331;DHT22;3706;49.198;7.064;2023-05-18T05:04:34;5.40;99.90
7331;DHT22;3706;49.198;7.064;2023-05-18T05:07:02;6.00;99.90
7331;DHT22;3706;49.198;7.064;2023-05-18T05:09:29;6.80;99.90
7331;DHT22;3706;49.198;7.064;2023-05-18T05:11:56;7.70;99.90
7331;DHT22;3706;49.198;7.064;2023-05-18T05:14:23;8.50;99.90
7331;DHT22;3706;49.198;7.064;2023-05-18T05:16:50;9.30;99.90
7331;DHT22;3706;49.198;7.064;2023-05-18T05:19:17;10.00;99.90
7331;DHT22;3706;49.198;7.064;2023-05-18T05:21:44;10.70;99.90
7331;DHT22;3706;49.198;7.064;2023-05-18T05:24:12;11.40;99.90
7331;DHT22;3706;49.198;7.064;2023-05-18T05:26:39;12.30;99.90
7331;DHT22;3706;49.198;7.064;2023-05-18T05:29:06;13.10;99.90
7331;DHT22;3706;49.198;7.064;2023-05-18T05:31:33;13.70;99.90
7331;DHT22;3706;49.198;7.064;2023-05-18T05:34:00;14.10;99.90
7331;DHT22;3706;49.198;7.064;2023-05-18T05:36:27;14.70;99.90
7331;DHT22;3706;49.198;7.064;2023-05-18T05:38:54;15.10;99.60
7331;DHT22;3706;49.198;7.064;2023-05-18T05:41:22;15.50;96.60
7331;DHT22;3706;49.198;7.064;2023-05-18T05:43:49;15.70;94.90
7331;DHT22;3706;49.198;7.064;2023-05-18T05:46:16;16.00;93.50
7331;DHT22;3706;49.198;7.064;2023-05-18T05:48:45;16.50;92.50
7331;DHT22;3706;49.198;7.064;2023-05-18T05:51:12;16.90;89.80
7331;DHT22;3706;49.198;7.064;2023-05-18T05:53:39;17.00;90.00
7331;DHT22;3706;49.198;7.064;2023-05-18T05:56:08;17.30;87.60
7331;DHT22;3706;49.198;7.064;2023-05-18T05:58:36;17.70;83.00
7331;DHT22;3706;49.198;7.064;2023-05-18T06:01:03;17.80;82.00
7331;DHT22;3706;49.198;7.064;2023-05-18T06:03:30;18.00;82.50
7331;DHT22;3706;49.198;7.064;2023-05-18T06:05:57;18.10;81.40
7331;DHT22;3706;49.198;7.064;2023-05-18T06:08:25;18.30;77.70
7331;DHT22;3706;49.198;7.064;2023-05-18T06:10:53;18.40;77.70
7331;DHT22;3706;49.198;7.064;2023-05-18T06:13:27;18.60;77.00
7331;DHT22;3706;49.198;7.064;2023-05-18T06:15:55;18.80;76.30
7331;DHT22;3706;49.198;7.064;2023-05-18T06:18:22;19.40;77.00
7331;DHT22;3706;49.198;7.064;2023-05-18T06:20:49;19.80;73.70
7331;DHT22;3706;49.198;7.064;2023-05-18T06:23:17;20.20;70.50
7331;DHT22;3706;49.198;7.064;2023-05-18T06:25:47;20.30;68.60
7331;DHT22;3706;49.198;7.064;2023-05-18T06:28:14;20.20;68.50
7331;DHT22;3706;49.198;7.064;2023-05-18T06:30:41;20.20;69.60
7331;DHT22;3706;49.198;7.064;2023-05-18T06:33:16;20.40;69.30
7331;DHT22;3706;49.198;7.064;2023-05-18T06:35:45;20.60;69.50
7331;DHT22;3706;49.198;7.064;2023-05-18T06:38:12;21.20;68.70
7331;DHT22;3706;49.198;7.064;2023-05-18T06:40:39;21.80;64.80
7331;DHT22;3706;49.198;7.064;2023-05-18T06:43:06;22.20;64.00
7331;DHT22;3706;49.198;7.064;2023-05-18T06:45:33;22.30;64.00
7331;DHT22;3706;49.198;7.064;2023-05-18T06:48:00;22.80;62.20
7331;DHT22;3706;49.198;7.064;2023-05-18T06:50:29;23.00;60.50
7331;DHT22;3706;49.198;7.064;2023-05-18T06:52:56;22.90;59.90
7331;DHT22;3706;49.198;7.064;2023-05-18T06:55:23;22.70;60.90
7331;DHT22;3706;49.198;7.064;2023-05-18T06:57:50;22.90;61.40
7331;DHT22;3706;49.198;7.064;2023-05-18T07:00:18;23.40;60.40
7331;DHT22;3706;49.198;7.064;2023-05-18T07:02:45;23.80;58.80
7331;DHT22;3706;49.198;7.064;2023-05-18T07:05:12;24.00;58.00
7331;DHT22;3706;49.198;7.064;2023-05-18T07:07:53;24.30;57.40
7331;DHT22;3706;49.198;7.064;2023-05-18T07:10:20;24.60;56.90
7331;DHT22;3706;49.198;7.064;2023-05-18T07:12:48;24.80;56.20
7331;DHT22;3706;49.198;7.064;2023-05-18T07:15:15;24.80;55.90
7331;DHT22;3706;49.198;7.064;2023-05-18T07:17:42;24.60;55.60
7331;DHT22;3706;49.198;7.064;2023-05-18T07:20:10;24.50;55.20
7331;DHT22;3706;49.198;7.064;2023-05-18T07:22:37;24.50;55.00
7331;DHT22;3706;49.198;7.064;2023-05-18T07:25:06;24.70;54.80
7331;DHT22;3706;49.198;7.064;2023-05-18T07:27:34;24.90;54.90
7331;DHT22;3706;49.198;7.064;2023-05-18T07:30:01;25.00;54.80
7331;DHT22;3706;49.198;7.064;2023-05-18T07:32:28;25.00;54.10
7331;DHT22;3706;49.198;7.064;2023-05-18T07:34:55;24.80;53.40
7331;DHT22;3706;49.198;7.064;2023-05-18T07:37:22;24.70;54.00
7331;DHT22;3706;49.198;7.064;2023-05-18T07:39:49;24.60;54.40
7331;DHT22;3706;49.198;7.064;2023-05-18T07:42:18;24.50;54.70
7331;DHT22;3706;49.198;7.064;2023-05-18T07:44:45;24.60;54.60
7331;DHT22;3706;49.198;7.064;2023-05-18T07:47:12;24.50;54.60
7331;DHT22;3706;49.198;7.064;2023-05-18T07:49:39;25.00;54.20
7331;DHT22;3706;49.198;7.064;2023-05-18T07:52:07;25.30;52.90
7331;DHT22;3706;49.198;7.064;2023-05-18T07:54:34;25.60;52.40
7331;DHT22;3706;49.198;7.064;2023-05-18T07:57:01;25.70;52.10
7331;DHT22;3706;49.198;7.064;2023-05-18T07:59:34;25.80;52.20
7331;DHT22;3706;49.198;7.064;2023-05-18T08:02:04;26.00;51.50
7331;DHT22;3706;49.198;7.064;2023-05-18T08:04:32;26.30;51.70
7331;DHT22;3706;49.198;7.064;2023-05-18T08:06:59;26.30;51.70
7331;DHT22;3706;49.198;7.064;2023-05-18T08:09:26;26.30;50.80
7331;DHT22;3706;49.198;7.064;2023-05-18T08:11:53;26.40;50.30
7331;DHT22;3706;49.198;7.064;2023-05-18T08:14:21;26.50;50.00
7331;DHT22;3706;49.198;7.064;2023-05-18T08:16:49;26.60;50.80
7331;DHT22;3706;49.198;7.064;2023-05-18T08:19:16;27.10;49.20
7331;DHT22;3706;49.198;7.064;2023-05-18T08:21:43;27.40;49.40
7331;DHT22;3706;49.198;7.064;2023-05-18T08:24:11;27.00;50.60
7331;DHT22;3706;49.198;7.064;2023-05-18T08:26:38;26.80;50.00
7331;DHT22;3706;49.198;7.064;2023-05-18T08:29:06;26.70;50.00
7331;DHT22;3706;49.198;7.064;2023-05-18T08:31:35;26.60;49.50
7331;DHT22;3706;49.198;7.064;2023-05-18T08:34:04;26.90;50.40
7331;DHT22;3706;49.198;7.064;2023-05-18T08:36:35;27.20;49.80
7331;DHT22;3706;49.198;7.064;2023-05-18T08:39:03;27.30;48.00
7331;DHT22;3706;49.198;7.064;2023-05-18T08:41:34;27.40;47.90
7331;DHT22;3706;49.198;7.064;2023-05-18T08:44:05;27.40;46.30
7331;DHT22;3706;49.198;7.064;2023-05-18T08:46:34;27.10;46.80
7331;DHT22;3706;49.198;7.064;2023-05-18T08:49:05;26.70;47.50
7331;DHT22;3706;49.198;7.064;2023-05-18T08:51:34;26.20;48.70
7331;DHT22;3706;49.198;7.064;2023-05-18T08:54:03;26.20;48.80
7331;DHT22;3706;49.198;7.064;2023-05-18T08:56:31;26.40;48.10
7331;DHT22;3706;49.198;7.064;2023-05-18T08:59:02;27.00;48.00
7331;DHT22;3706;49.198;7.064;2023-05-18T09:01:33;27.50;46.00
7331;DHT22;3706;49.198;7.064;2023-05-18T09:04:01;27.50;47.00
7331;DHT22;3706;49.198;7.064;2023-05-18T09:06:31;27.50;45.30
7331;DHT22;3706;49.198;7.064;2023-05-18T09:09:00;27.40;44.70
7331;DHT22;3706;49.198;7.064;2023-05-18T09:11:31;26.50;45.60
7331;DHT22;3706;49.198;7.064;2023-05-18T09:13:58;26.10;47.60
7331;DHT22;3706;49.198;7.064;2023-05-18T09:16:25;25.80;47.40
7331;DHT22;3706;49.198;7.064;2023-05-18T09:18:52;25.70;47.90
7331;DHT22;3706;49.198;7.064;2023-05-18T09:21:19;25.90;47.00
7331;DHT22;3706;49.198;7.064;2023-05-18T09:23:49;26.20;46.20
7331;DHT22;3706;49.198;7.064;2023-05-18T09:26:18;26.40;46.50
7331;DHT22;3706;49.198;7.064;2023-05-18T09:28:50;26.70;46.80
7331;DHT22;3706;49.198;7.064;2023-05-18T09:31:19;27.30;45.90
7331;DHT22;3706;49.198;7.064;2023-05-18T09:33:47;27.50;46.00
7331;DHT22;3706;49.198;7.064;2023-05-18T09:36:16;27.50;44.50
7331;DHT22;3706;49.198;7.064;2023-05-18T09:38:44;27.00;44.80
7331;DHT22;3706;49.198;7.064;2023-05-18T09:41:14;26.70;45.30
7331;DHT22;3706;49.198;7.064;2023-05-18T09:43:42;26.40;46.70
7331;DHT22;3706;49.198;7.064;2023-05-18T09:46:11;26.60;46.40
7331;DHT22;3706;49.198;7.064;2023-05-18T09:49:00;27.00;45.80
7331;DHT22;3706;49.198;7.064;2023-05-18T09:51:41;27.30;45.30
7331;DHT22;3706;49.198;7.064;2023-05-18T09:54:08;28.00;44.70
7331;DHT22;3706;49.198;7.064;2023-05-18T09:56:37;27.90;44.10
7331;DHT22;3706;49.198;7.064;2023-05-18T09:59:07;27.60;43.80
7331;DHT22;3706;49.198;7.064;2023-05-18T10:01:36;27.40;44.20
7331;DHT22;3706;49.198;7.064;2023-05-18T10:04:06;26.70;43.80
7331;DHT22;3706;49.198;7.064;2023-05-18T10:06:33;25.70;45.70
7331;DHT22;3706;49.198;7.064;2023-05-18T10:09:01;25.10;46.50
7331;DHT22;3706;49.198;7.064;2023-05-18T10:11:31;25.30;47.80
7331;DHT22;3706;49.198;7.064;2023-05-18T10:14:00;25.50;47.10
7331;DHT22;3706;49.198;7.064;2023-05-18T10:16:28;26.00;47.20
7331;DHT22;3706;49.198;7.064;2023-05-18T10:19:05;26.40;47.30
7331;DHT22;3706;49.198;7.064;2023-05-18T10:21:37;26.80;45.60
7331;DHT22;3706;49.198;7.064;2023-05-18T10:24:12;27.30;46.00
7331;DHT22;3706;49.198;7.064;2023-05-18T10:26:44;27.40;44.30
7331;DHT22;3706;49.198;7.064;2023-05-18T10:29:17;27.60;44.30
7331;DHT22;3706;49.198;7.064;2023-05-18T10:31:45;28.00;44.10
7331;DHT22;3706;49.198;7.064;2023-05-18T10:34:14;28.70;43.60
7331;DHT22;3706;49.198;7.064;2023-05-18T10:36:43;29.00;41.40
7331;DHT22;3706;49.198;7.064;2023-05-18T10:39:10;28.80;42.70
7331;DHT22;3706;49.198;7.064;2023-05-18T10:41:39;28.60;41.80
7331;DHT22;3706;49.198;7.064;2023-05-18T10:44:07;28.20;42.90
7331;DHT22;3706;49.198;7.064;2023-05-18T10:46:35;27.60;44.60
7331;DHT22;3706;49.198;7.064;2023-05-18T10:49:03;27.50;45.30
7331;DHT22;3706;49.198;7.064;2023-05-18T10:51:38;27.40;44.00
7331;DHT22;3706;49.198;7.064;2023-05-18T10:54:11;26.70;45.60
7331;DHT22;3706;49.198;7.064;2023-05-18T10:56:41;26.60;45.50
7331;DHT22;3706;49.198;7.064;2023-05-18T10:59:10;26.80;44.90
7331;DHT22;3706;49.198;7.064;2023-05-18T11:01:41;27.20;43.60
7331;DHT22;3706;49.198;7.064;2023-05-18T11:04:08;27.60;44.10
7331;DHT22;3706;49.198;7.064;2023-05-18T11:06:35;27.70;45.20
7331;DHT22;3706;49.198;7.064;2023-05-18T11:09:03;27.40;44.60
7331;DHT22;3706;49.198;7.064;2023-05-18T11:11:49;27.00;45.10
7331;DHT22;3706;49.198;7.064;2023-05-18T11:14:24;26.50;47.10
7331;DHT22;3706;49.198;7.064;2023-05-18T11:16:53;26.60;45.90
7331;DHT22;3706;49.198;7.064;2023-05-18T11:22:41;27.70;45.80
7331;DHT22;3706;49.198;7.064;2023-05-18T11:25:08;28.10;44.90
7331;DHT22;3706;49.198;7.064;2023-05-18T11:27:35;27.90;45.60
7331;DHT22;3706;49.198;7.064;2023-05-18T11:30:06;27.60;45.20
7331;DHT22;3706;49.198;7.064;2023-05-18T11:33:06;27.30;45.00
7331;DHT22;3706;49.198;7.064;2023-05-18T11:35:53;26.30;46.30
7331;DHT22;3706;49.198;7.064;2023-05-18T11:38:22;26.20;46.90
7331;DHT22;3706;49.198;7.064;2023-05-18T11:40:50;26.50;46.20
7331;DHT22;3706;49.198;7.064;2023-05-18T11:43:19;26.90;46.60
7331;DHT22;3706;49.198;7.064;2023-05-18T11:45:53;27.50;46.40
7331;DHT22;3706;49.198;7.064;2023-05-18T11:48:23;27.50;45.50
7331;DHT22;3706;49.198;7.064;2023-05-18T11:50:52;27.10;46.10
7331;DHT22;3706;49.198;7.064;2023-05-18T11:53:22;26.40;47.20
7331;DHT22;3706;49.198;7.064;2023-05-18T11:55:51;26.20;46.10
7331;DHT22;3706;49.198;7.064;2023-05-18T11:58:19;25.80;47.20
7331;DHT22;3706;49.198;7.064;2023-05-18T12:00:51;25.50;48.20
7331;DHT22;3706;49.198;7.064;2023-05-18T12:03:23;25.70;47.70
7331;DHT22;3706;49.198;7.064;2023-05-18T12:05:52;25.20;48.00
7331;DHT22;3706;49.198;7.064;2023-05-18T12:08:19;25.00;48.80
7331;DHT22;3706;49.198;7.064;2023-05-18T12:10:54;24.70;49.90
7331;DHT22;3706;49.198;7.064;2023-05-18T12:13:22;24.00;50.80
7331;DHT22;3706;49.198;7.064;2023-05-18T12:15:49;23.70;51.00
7331;DHT22;3706;49.198;7.064;2023-05-18T12:18:17;23.90;52.50
7331;DHT22;3706;49.198;7.064;2023-05-18T12:20:48;24.30;51.60
7331;DHT22;3706;49.198;7.064;2023-05-18T12:23:15;24.60;51.20
7331;DHT22;3706;49.198;7.064;2023-05-18T12:25:44;24.40;50.80
7331;DHT22;3706;49.198;7.064;2023-05-18T12:28:13;23.90;51.80
7331;DHT22;3706;49.198;7.064;2023-05-18T12:30:41;23.60;52.20
7331;DHT22;3706;49.198;7.064;2023-05-18T12:33:13;23.50;53.00
7331;DHT22;3706;49.198;7.064;2023-05-18T12:35:41;23.30;53.30
7331;DHT22;3706;49.198;7.064;2023-05-18T12:38:09;23.40;53.10
7331;DHT22;3706;49.198;7.064;2023-05-18T12:40:37;23.80;53.20
7331;DHT22;3706;49.198;7.064;2023-05-18T12:43:09;23.70;52.90
7331;DHT22;3706;49.198;7.064;2023-05-18T12:45:36;23.30;52.50
7331;DHT22;3706;49.198;7.064;2023-05-18T12:48:06;22.80;53.80
7331;DHT22;3706;49.198;7.064;2023-05-18T12:50:34;22.90;54.00
7331;DHT22;3706;49.198;7.064;2023-05-18T12:53:03;22.90;53.40
7331;DHT22;3706;49.198;7.064;2023-05-18T12:55:31;22.70;53.10
7331;DHT22;3706;49.198;7.064;2023-05-18T12:58:00;22.80;53.50
7331;DHT22;3706;49.198;7.064;2023-05-18T13:00:48;23.10;53.30
7331;DHT22;3706;49.198;7.064;2023-05-18T13:03:23;23.40;52.70
7331;DHT22;3706;49.198;7.064;2023-05-18T13:06:01;23.80;52.00
7331;DHT22;3706;49.198;7.064;2023-05-18T13:08:30;24.20;53.00
7331;DHT22;3706;49.198;7.064;2023-05-18T13:11:01;24.50;51.60
7331;DHT22;3706;49.198;7.064;2023-05-18T13:13:28;24.30;51.20
7331;DHT22;3706;49.198;7.064;2023-05-18T13:15:55;23.90;50.90
7331;DHT22;3706;49.198;7.064;2023-05-18T13:18:25;23.70;51.80
7331;DHT22;3706;49.198;7.064;2023-05-18T13:20:53;23.80;52.80
7331;DHT22;3706;49.198;7.064;2023-05-18T13:23:22;23.90;51.90
7331;DHT22;3706;49.198;7.064;2023-05-18T13:25:49;23.90;52.60
7331;DHT22;3706;49.198;7.064;2023-05-18T13:28:19;23.30;53.80
7331;DHT22;3706;49.198;7.064;2023-05-18T13:30:47;23.00;53.40
7331;DHT22;3706;49.198;7.064;2023-05-18T13:33:15;23.10;53.10
7331;DHT22;3706;49.198;7.064;2023-05-18T13:35:44;23.00;53.80
7331;DHT22;3706;49.198;7.064;2023-05-18T13:38:13;22.80;53.60
7331;DHT22;3706;49.198;7.064;2023-05-18T13:40:43;22.60;54.40
7331;DHT22;3706;49.198;7.064;2023-05-18T13:43:11;22.70;54.60
7331;DHT22;3706;49.198;7.064;2023-05-18T13:45:40;22.80;54.60
7331;DHT22;3706;49.198;7.064;2023-05-18T13:48:07;22.80;54.80
7331;DHT22;3706;49.198;7.064;2023-05-18T13:50:37;22.80;54.50
7331;DHT22;3706;49.198;7.064;2023-05-18T13:53:04;22.70;54.80
7331;DHT22;3706;49.198;7.064;2023-05-18T13:55:31;22.50;54.70
7331;DHT22;3706;49.198;7.064;2023-05-18T13:57:58;22.50;55.40
7331;DHT22;3706;49.198;7.064;2023-05-18T14:00:25;22.60;55.00
7331;DHT22;3706;49.198;7.064;2023-05-18T14:02:54;22.50;54.30
7331;DHT22;3706;49.198;7.064;2023-05-18T14:05:21;22.30;55.30
7331;DHT22;3706;49.198;7.064;2023-05-18T14:07:48;22.20;55.50
7331;DHT22;3706;49.198;7.064;2023-05-18T14:10:17;21.90;55.70
7331;DHT22;3706;49.198;7.064;2023-05-18T14:12:44;21.80;55.30
7331;DHT22;3706;49.198;7.064;2023-05-18T14:15:12;21.60;54.50
7331;DHT22;3706;49.198;7.064;2023-05-18T14:17:40;21.40;55.50
7331;DHT22;3706;49.198;7.064;2023-05-18T14:20:09;21.20;56.20
7331;DHT22;3706;49.198;7.064;2023-05-18T14:22:37;20.90;56.70
7331;DHT22;3706;49.198;7.064;2023-05-18T14:25:04;20.90;57.00
7331;DHT22;3706;49.198;7.064;2023-05-18T14:27:31;21.00;56.60
7331;DHT22;3706;49.198;7.064;2023-05-18T14:29:58;21.10;56.10
7331;DHT22;3706;49.198;7.064;2023-05-18T14:32:25;20.90;56.40
7331;DHT22;3706;49.198;7.064;2023-05-18T14:34:52;20.70;56.80
7331;DHT22;3706;49.198;7.064;2023-05-18T14:37:24;20.60;57.40
7331;DHT22;3706;49.198;7.064;2023-05-18T14:39:51;20.50;57.30
7331;DHT22;3706;49.198;7.064;2023-05-18T14:42:18;20.50;56.80
7331;DHT22;3706;49.198;7.064;2023-05-18T14:44:45;20.40;57.10
7331;DHT22;3706;49.198;7.064;2023-05-18T14:47:12;20.50;57.40
7331;DHT22;3706;49.198;7.064;2023-05-18T14:49:40;20.40;57.30
7331;DHT22;3706;49.198;7.064;2023-05-18T14:52:09;20.40;58.60
7331;DHT22;3706;49.198;7.064;2023-05-18T14:54:40;20.40;57.10
7331;DHT22;3706;49.198;7.064;2023-05-18T14:57:07;20.50;56.00
7331;DHT22;3706;49.198;7.064;2023-05-18T14:59:34;20.50;55.80
7331;DHT22;3706;49.198;7.064;2023-05-18T15:02:01;20.70;56.40
7331;DHT22;3706;49.198;7.064;2023-05-18T15:04:28;20.60;56.90
7331;DHT22;3706;49.198;7.064;2023-05-18T15:06:55;20.50;57.30
7331;DHT22;3706;49.198;7.064;2023-05-18T15:09:22;20.40;56.80
7331;DHT22;3706;49.198;7.064;2023-05-18T15:11:50;20.30;57.10
7331;DHT22;3706;49.198;7.064;2023-05-18T15:14:18;20.20;58.10
7331;DHT22;3706;49.198;7.064;2023-05-18T15:16:45;20.20;58.30
7331;DHT22;3706;49.198;7.064;2023-05-18T15:19:12;20.20;57.90
7331;DHT22;3706;49.198;7.064;2023-05-18T15:21:39;20.20;57.20
7331;DHT22;3706;49.198;7.064;2023-05-18T15:24:07;20.20;58.00
7331;DHT22;3706;49.198;7.064;2023-05-18T15:26:34;20.10;57.60
7331;DHT22;3706;49.198;7.064;2023-05-18T15:29:03;20.00;57.80
7331;DHT22;3706;49.198;7.064;2023-05-18T15:31:30;19.90;57.10
7331;DHT22;3706;49.198;7.064;2023-05-18T15:33:57;19.80;57.50
7331;DHT22;3706;49.198;7.064;2023-05-18T15:36:24;19.70;58.60
7331;DHT22;3706;49.198;7.064;2023-05-18T15:38:51;19.50;57.90
7331;DHT22;3706;49.198;7.064;2023-05-18T15:41:20;19.40;58.80
7331;DHT22;3706;49.198;7.064;2023-05-18T15:43:50;19.50;58.80
7331;DHT22;3706;49.198;7.064;2023-05-18T15:46:19;19.60;59.60
7331;DHT22;3706;49.198;7.064;2023-05-18T15:48:46;19.50;58.90
7331;DHT22;3706;49.198;7.064;2023-05-18T15:51:13;19.40;59.40
7331;DHT22;3706;49.198;7.064;2023-05-18T15:53:40;19.40;59.30
7331;DHT22;3706;49.198;7.064;2023-05-18T15:56:07;19.40;59.30
7331;DHT22;3706;49.198;7.064;2023-05-18T15:58:35;19.30;58.10
7331;DHT22;3706;49.198;7.064;2023-05-18T16:01:02;19.30;58.20
7331;DHT22;3706;49.198;7.064;2023-05-18T16:03:30;19.20;59.20
7331;DHT22;3706;49.198;7.064;2023-05-18T16:05:57;19.20;59.60
7331;DHT22;3706;49.198;7.064;2023-05-18T16:08:24;19.20;59.40
7331;DHT22;3706;49.198;7.064;2023-05-18T16:10:51;19.20;59.50
7331;DHT22;3706;49.198;7.064;2023-05-18T16:13:18;19.10;58.50
7331;DHT22;3706;49.198;7.064;2023-05-18T16:15:48;19.10;58.60
7331;DHT22;3706;49.198;7.064;2023-05-18T16:18:15;19.10;59.20
7331;DHT22;3706;49.198;7.064;2023-05-18T16:20:43;19.00;58.90